createdAt,value
2022-08-04T00:35:55.133Z,21.93
2022-08-04T01:01:40.524Z,21.64
2022-08-04T01:05:08.933Z,21.61
2022-08-04T01:13:33.567Z,21.59
2022-08-04T01:16:11.156Z,21.54
2022-08-04T01:19:02.726Z,21.51
2022-08-04T01:22:15.286Z,21.46
2022-08-04T01:25:11.764Z,21.37
2022-08-04T01:28:08.978Z,21.49
2022-08-04T01:30:44.068Z,21.53
2022-08-04T01:33:16.564Z,21.36
2022-08-04T01:35:52.460Z,21.30
2022-08-04T01:38:27.851Z,21.40
2022-08-04T01:41:01.018Z,21.19
2022-08-04T01:43:32.978Z,21.26
2022-08-04T01:46:06.181Z,21.27
2022-08-04T01:48:40.402Z,21.30
2022-08-04T01:51:11.656Z,21.22
2022-08-04T01:53:42.568Z,21.33
2022-08-04T01:56:15.651Z,21.24
2022-08-04T01:58:44.807Z,21.21
2022-08-04T02:01:18.194Z,21.11
2022-08-04T02:04:19.398Z,21.17
2022-08-04T02:06:53.851Z,21.17
2022-08-04T02:09:54.260Z,21.19
2022-08-04T02:12:33.237Z,21.24
2022-08-04T02:15:11.901Z,21.21
2022-08-04T02:17:58.320Z,20.94
2022-08-04T02:20:48.481Z,21.08
2022-08-04T02:23:28.403Z,21.02
2022-08-04T02:25:59.901Z,21.08
2022-08-04T02:28:41.467Z,21.03
2022-08-04T02:31:38.592Z,21.04
2022-08-04T02:34:18.293Z,20.89
2022-08-04T02:36:53.920Z,21.03
2022-08-04T02:39:24.674Z,20.98
2022-08-04T02:41:57.220Z,21.07
2022-08-04T02:44:30.084Z,20.95
2022-08-04T02:47:09.010Z,20.97
2022-08-04T02:49:41.228Z,20.92
2022-08-04T02:52:12.817Z,20.82
2022-08-04T02:54:46.283Z,20.88
2022-08-04T02:57:16.763Z,20.94
2022-08-04T03:00:06.423Z,21.02
2022-08-04T03:02:52.651Z,20.95
2022-08-04T03:05:57.510Z,20.96
2022-08-04T03:09:35.270Z,20.95
2022-08-04T03:12:48.499Z,20.76
2022-08-04T03:16:07.632Z,20.87
2022-08-04T03:19:34.508Z,20.84
2022-08-04T03:23:13.390Z,20.78
2022-08-04T03:36:28.491Z,20.72
2022-08-04T03:39:49.734Z,20.68
2022-08-04T03:43:57.692Z,20.79
2022-08-04T03:46:43.854Z,20.74
2022-08-04T03:49:53.011Z,20.58
2022-08-04T03:53:13.537Z,20.67
2022-08-04T03:55:55.718Z,20.65
2022-08-04T03:58:50.263Z,20.55
2022-08-04T04:02:02.247Z,20.66
2022-08-04T04:05:11.086Z,20.67
2022-08-04T04:08:18.665Z,20.56
2022-08-04T04:11:28.361Z,20.46
2022-08-04T04:14:20.673Z,20.50
2022-08-04T04:17:25.637Z,20.68
2022-08-04T04:20:27.726Z,20.63
2022-08-04T04:23:11.438Z,20.79
2022-08-04T04:25:59.441Z,20.56
2022-08-04T04:29:03.613Z,20.67
2022-08-04T04:31:57.631Z,20.65
2022-08-04T04:34:46.084Z,20.72
2022-08-04T04:37:59.008Z,20.73
2022-08-04T04:40:45.060Z,20.77
2022-08-04T04:43:51.027Z,20.77
2022-08-04T04:46:36.892Z,20.81
2022-08-04T04:49:19.107Z,20.72
2022-08-04T04:51:55.052Z,20.72
2022-08-04T04:54:34.710Z,20.78
2022-08-04T04:57:12.804Z,20.89
2022-08-04T04:59:50.685Z,20.82
2022-08-04T05:03:09.329Z,20.81
2022-08-04T05:06:16.395Z,20.91
2022-08-04T05:09:05.853Z,20.96
2022-08-04T05:12:45.006Z,20.98
2022-08-04T05:15:25.498Z,20.99
2022-08-04T05:17:59.013Z,20.88
2022-08-04T05:20:34.649Z,20.87
2022-08-04T05:23:12.643Z,21.06
2022-08-04T05:25:58.695Z,21.01
2022-08-04T05:28:35.714Z,21.14
2022-08-04T05:31:15.553Z,21.16
2022-08-04T05:33:53.486Z,21.24
2022-08-04T05:36:40.516Z,21.03
2022-08-04T05:39:20.153Z,21.15
2022-08-04T05:41:55.664Z,21.23
2022-08-04T05:44:29.183Z,21.36
2022-08-04T05:47:02.974Z,21.39
2022-08-04T05:49:36.341Z,21.36
2022-08-04T05:52:08.362Z,21.41
2022-08-04T05:54:41.011Z,21.40
2022-08-04T05:57:11.536Z,21.43
2022-08-04T05:59:42.869Z,21.52
2022-08-04T06:02:12.870Z,21.44
2022-08-04T06:04:47.397Z,21.49
2022-08-04T06:07:17.056Z,21.52
2022-08-04T06:09:46.744Z,21.55
2022-08-04T06:12:21.702Z,21.57
2022-08-04T06:14:59.726Z,21.56
2022-08-04T06:18:33.081Z,21.59
2022-08-04T06:20:32.837Z,21.65
2022-08-04T06:23:11.059Z,21.67
2022-08-04T06:25:46.516Z,21.72
2022-08-04T06:28:21.139Z,21.71
2022-08-04T06:30:51.699Z,21.78
2022-08-04T06:33:27.834Z,21.83
2022-08-04T06:35:59.659Z,21.94
2022-08-04T06:38:31.310Z,21.97
2022-08-04T06:41:10.188Z,22.00
2022-08-04T06:43:43.046Z,22.06
2022-08-04T06:46:13.471Z,22.07
2022-08-04T06:48:44.413Z,22.15
2022-08-04T06:51:32.711Z,22.15
2022-08-04T06:54:06.324Z,22.24
2022-08-04T06:56:36.607Z,22.28
2022-08-04T06:59:06.265Z,22.35
2022-08-04T07:01:38.648Z,22.45
2022-08-04T07:04:10.526Z,22.54
2022-08-04T07:15:01.305Z,22.93
2022-08-04T07:17:35.307Z,22.90
2022-08-04T07:20:13.122Z,22.90
2022-08-04T07:22:48.836Z,22.96
2022-08-04T07:25:20.126Z,23.04
2022-08-04T07:27:58.072Z,23.20
2022-08-04T07:30:29.658Z,23.29
2022-08-04T07:32:59.209Z,23.54
2022-08-04T07:36:05.327Z,23.68
2022-08-04T07:38:51.463Z,23.74
2022-08-04T07:41:49.166Z,23.92
2022-08-04T07:44:20.086Z,24.44
2022-08-04T07:46:50.003Z,24.27
2022-08-04T07:49:55.134Z,24.15
2022-08-04T07:52:12.390Z,24.60
2022-08-04T07:54:44.603Z,24.56
2022-08-04T07:57:41.045Z,24.32
2022-08-04T08:00:19.358Z,24.41
2022-08-04T08:03:14.446Z,24.50
2022-08-04T08:05:54.599Z,24.55
2022-08-04T08:08:48.387Z,25.02
2022-08-04T08:12:37.697Z,25.29
2022-08-04T08:14:16.961Z,25.10
2022-08-04T08:16:47.003Z,25.21
2022-08-04T08:19:15.881Z,25.50
2022-08-04T08:21:59.606Z,25.65
2022-08-04T08:24:30.555Z,25.44
2022-08-04T08:27:01.299Z,25.38
2022-08-04T08:29:31.432Z,25.40
2022-08-04T08:32:07.731Z,25.32
2022-08-04T08:34:39.156Z,25.67
2022-08-04T08:37:17.675Z,25.66
2022-08-04T08:39:58.806Z,25.79
2022-08-04T08:43:59.907Z,25.86
2022-08-04T08:46:12.028Z,25.96
2022-08-04T08:50:03.273Z,26.06
2022-08-04T08:53:00.547Z,26.22
2022-08-04T08:55:32.341Z,26.60
2022-08-04T08:58:32.564Z,26.12
2022-08-04T09:01:17.677Z,26.02
2022-08-04T09:04:37.006Z,26.09
2022-08-04T09:07:39.595Z,26.30
2022-08-04T09:10:15.465Z,26.63
2022-08-04T09:12:53.569Z,26.78
2022-08-04T09:15:36.092Z,26.58
2022-08-04T09:18:12.228Z,26.89
2022-08-04T09:20:49.327Z,27.05
2022-08-04T09:23:26.866Z,26.99
2022-08-04T09:26:04.779Z,27.11
2022-08-04T09:28:54.034Z,27.45
2022-08-04T09:31:51.376Z,27.11
2022-08-04T09:34:39.761Z,27.26
2022-08-04T09:37:18.615Z,27.51
2022-08-04T09:39:59.860Z,27.53
2022-08-04T09:42:45.716Z,27.35
2022-08-04T09:45:26.642Z,27.34
2022-08-04T09:48:15.525Z,27.59
2022-08-04T09:50:50.041Z,27.85
2022-08-04T09:53:39.040Z,27.68
2022-08-04T09:56:17.676Z,27.65
2022-08-04T09:58:57.303Z,27.49
2022-08-04T10:01:30.393Z,27.68
2022-08-04T10:04:04.917Z,27.89
2022-08-04T10:06:50.447Z,28.17
2022-08-04T10:09:46.567Z,28.19
2022-08-04T10:12:35.287Z,28.05
2022-08-04T10:15:19.003Z,27.94
2022-08-04T10:18:08.720Z,27.90
2022-08-04T10:21:06.198Z,28.14
2022-08-04T10:24:00.378Z,28.32
2022-08-04T10:26:47.378Z,28.59
2022-08-04T10:29:22.647Z,28.49
2022-08-04T10:32:01.482Z,28.59
2022-08-04T10:34:39.383Z,28.85
2022-08-04T10:37:21.862Z,28.73
2022-08-04T10:40:36.265Z,28.82
2022-08-04T10:43:21.021Z,29.46
2022-08-04T10:45:58.467Z,29.38
2022-08-04T10:48:45.793Z,29.22
2022-08-04T10:51:25.646Z,29.32
2022-08-04T10:54:01.996Z,29.64
2022-08-04T10:56:37.451Z,29.88
2022-08-04T10:59:18.997Z,29.74
2022-08-04T11:02:02.540Z,29.78
2022-08-04T11:04:43.389Z,29.51
2022-08-04T11:07:14.689Z,29.60
2022-08-04T11:09:46.855Z,29.62
2022-08-04T11:12:20.719Z,29.65
2022-08-04T11:14:57.788Z,29.76
2022-08-04T11:17:33.677Z,29.87
2022-08-04T11:23:10.717Z,30.33
2022-08-04T11:25:54.556Z,30.14
2022-08-04T11:28:37.985Z,30.29
2022-08-04T11:31:11.453Z,30.48
2022-08-04T11:33:49.533Z,30.77
2022-08-04T11:36:28.311Z,30.78
2022-08-04T11:39:07.684Z,30.81
2022-08-04T11:41:50.122Z,30.76
2022-08-04T11:44:28.344Z,30.91
2022-08-04T11:47:05.366Z,30.73
2022-08-04T11:49:57.562Z,31.22
2022-08-04T11:52:30.028Z,31.27
2022-08-04T11:55:01.222Z,31.59
2022-08-04T11:57:35.916Z,31.36
2022-08-04T12:00:11.244Z,31.42
2022-08-04T12:03:12.099Z,31.70
2022-08-04T12:06:03.542Z,32.00
2022-08-04T12:08:57.674Z,31.82
2022-08-04T12:11:42.326Z,31.85
2022-08-04T12:14:35.162Z,32.34
2022-08-04T12:17:06.769Z,32.83
2022-08-04T12:20:04.046Z,32.87
2022-08-04T12:22:41.475Z,32.92
2022-08-04T12:25:14.493Z,33.39
2022-08-04T12:27:49.369Z,33.68
2022-08-04T12:31:00.600Z,33.82
2022-08-04T12:33:22.558Z,33.88
2022-08-04T12:36:11.084Z,34.02
2022-08-04T12:38:50.404Z,34.17
2022-08-04T12:41:26.030Z,34.39
2022-08-04T12:43:56.093Z,34.72
2022-08-04T12:46:28.877Z,34.53
2022-08-04T12:49:05.321Z,34.71
2022-08-04T12:52:07.815Z,34.57
2022-08-04T12:54:32.253Z,34.89
2022-08-04T12:57:03.948Z,34.98
2022-08-04T12:59:39.960Z,34.98
2022-08-04T13:05:09.012Z,35.88
2022-08-04T13:07:44.040Z,36.33
2022-08-04T13:10:18.200Z,35.89
2022-08-04T13:12:59.068Z,35.90
2022-08-04T13:15:30.925Z,36.12
2022-08-04T13:18:06.547Z,36.32
2022-08-04T13:20:46.143Z,36.49
2022-08-04T13:23:28.959Z,36.68
2022-08-04T13:26:54.311Z,36.58
2022-08-04T13:30:22.655Z,36.67
2022-08-04T13:33:02.487Z,36.69
2022-08-04T13:35:54.371Z,36.73
2022-08-04T13:38:27.434Z,37.34
2022-08-04T13:41:01.797Z,37.09
2022-08-04T13:44:15.742Z,36.84
2022-08-04T13:46:31.107Z,37.19
2022-08-04T13:51:59.101Z,37.22
2022-08-04T13:54:42.391Z,37.30
2022-08-04T13:57:17.429Z,37.27
2022-08-04T13:59:55.109Z,37.23
2022-08-04T14:02:35.377Z,37.30
2022-08-04T14:05:18.810Z,36.73
2022-08-04T14:07:54.121Z,37.10
2022-08-04T14:10:25.164Z,37.22
2022-08-04T14:12:55.845Z,36.91
2022-08-04T14:16:01.486Z,36.74
2022-08-04T14:19:02.349Z,37.24
2022-08-04T14:21:37.812Z,37.06
2022-08-04T14:24:28.149Z,36.85
2022-08-04T14:27:01.531Z,37.17
2022-08-04T14:29:39.489Z,37.07
2022-08-04T14:32:14.487Z,37.27
2022-08-04T14:34:46.254Z,37.01
2022-08-04T14:37:20.728Z,36.66
2022-08-04T14:40:17.332Z,36.19
2022-08-04T14:42:54.949Z,36.64
2022-08-04T14:45:33.813Z,36.36
2022-08-04T14:48:04.297Z,36.23
2022-08-04T14:50:39.778Z,36.39
2022-08-04T14:53:11.147Z,36.14
2022-08-04T14:55:46.790Z,35.25
2022-08-04T14:58:34.800Z,35.10
2022-08-04T15:01:14.671Z,35.18
2022-08-04T15:03:48.261Z,35.37
2022-08-04T15:06:25.445Z,34.82
2022-08-04T15:08:56.911Z,34.68
2022-08-04T15:11:28.317Z,34.43
2022-08-04T15:13:59.396Z,34.42
2022-08-04T15:16:31.882Z,34.59
2022-08-04T15:19:01.923Z,34.68
2022-08-04T15:21:31.803Z,34.12
2022-08-04T15:24:01.167Z,34.09
2022-08-04T15:26:36.876Z,33.98
2022-08-04T15:29:16.418Z,34.05
2022-08-04T15:32:07.953Z,34.08
2022-08-04T15:34:48.075Z,33.95
2022-08-04T15:37:26.882Z,33.68
2022-08-04T15:40:02.497Z,33.25
2022-08-04T15:42:38.920Z,33.31
2022-08-04T15:46:41.887Z,33.32
2022-08-04T15:48:34.439Z,33.08
2022-08-04T15:51:14.763Z,33.19
2022-08-04T15:54:27.766Z,33.02
2022-08-04T15:57:03.664Z,33.16
2022-08-04T16:00:03.251Z,32.89
2022-08-04T16:02:47.001Z,33.06
2022-08-04T16:05:39.644Z,33.12
2022-08-04T16:08:18.913Z,32.95
2022-08-04T16:10:50.954Z,32.91
2022-08-04T16:13:22.701Z,32.89
2022-08-04T16:16:03.303Z,32.69
2022-08-04T16:18:43.998Z,32.66
2022-08-04T16:21:23.410Z,32.64
2022-08-04T16:24:16.242Z,32.61
2022-08-04T16:26:54.666Z,32.31
2022-08-04T16:29:45.026Z,32.20
2022-08-04T16:32:40.881Z,32.13
2022-08-04T16:35:28.505Z,32.22
2022-08-04T16:38:14.400Z,32.18
2022-08-04T16:40:47.379Z,32.07
2022-08-04T16:43:19.415Z,32.08
2022-08-04T16:45:54.329Z,32.02
2022-08-04T16:48:27.621Z,31.98
2022-08-04T16:51:06.733Z,32.04
2022-08-04T16:54:02.998Z,31.83
2022-08-04T16:56:36.026Z,31.78
2022-08-04T16:59:10.588Z,31.69
2022-08-04T17:01:47.263Z,31.67
2022-08-04T17:04:18.713Z,31.78
2022-08-04T17:06:48.157Z,31.74
2022-08-04T17:09:22.380Z,31.52
2022-08-04T17:11:55.984Z,31.58
2022-08-04T17:14:26.626Z,31.41
2022-08-04T17:16:59.691Z,31.32
2022-08-04T17:19:30.304Z,31.27
2022-08-04T17:22:06.238Z,31.19
2022-08-04T17:24:38.316Z,31.42
2022-08-04T17:28:08.774Z,31.10
2022-08-04T17:29:59.832Z,30.98
2022-08-04T17:32:28.841Z,30.93
2022-08-04T17:35:03.740Z,30.93
2022-08-04T17:37:38.236Z,30.91
2022-08-04T17:40:13.560Z,30.88
2022-08-04T17:42:45.299Z,30.81
2022-08-04T17:45:50.728Z,30.79
2022-08-04T17:48:10.348Z,30.76
2022-08-04T17:50:43.368Z,30.81
2022-08-04T17:53:13.562Z,30.61
2022-08-04T17:55:47.019Z,30.54
2022-08-04T17:58:23.039Z,30.54
2022-08-04T18:01:23.094Z,30.47
2022-08-04T18:03:52.800Z,30.44
2022-08-04T18:06:25.865Z,30.35
2022-08-04T18:08:58.904Z,30.21
2022-08-04T18:11:42.205Z,30.04
2022-08-04T18:14:11.655Z,30.00
2022-08-04T18:16:47.201Z,29.89
2022-08-04T18:19:19.093Z,29.78
2022-08-04T18:21:59.754Z,29.67
2022-08-04T18:24:35.586Z,29.56
2022-08-04T18:27:24.521Z,29.36
2022-08-04T18:30:32.571Z,29.25
2022-08-04T18:33:24.548Z,29.12
2022-08-04T18:36:32.794Z,29.05
2022-08-04T18:38:26.220Z,28.98
2022-08-04T18:40:58.879Z,28.99
2022-08-04T18:43:30.379Z,28.91
2022-08-04T18:46:14.699Z,28.79
2022-08-04T18:48:45.239Z,28.79
2022-08-04T18:51:24.814Z,28.67
2022-08-04T18:54:01.363Z,28.62
2022-08-04T18:56:33.184Z,28.49
2022-08-04T18:59:04.231Z,28.32
2022-08-04T19:02:12.554Z,28.34
2022-08-04T19:04:32.829Z,28.25
2022-08-04T19:07:25.117Z,28.20
2022-08-04T19:09:58.131Z,28.07
2022-08-04T19:12:29.424Z,28.02
2022-08-04T19:15:08.678Z,27.95
2022-08-04T19:17:53.474Z,27.88
2022-08-04T19:20:27.262Z,27.84
2022-08-04T19:24:11.256Z,27.74
2022-08-04T19:26:02.894Z,27.66
2022-08-04T19:28:39.455Z,27.47
2022-08-04T19:31:10.645Z,27.37
2022-08-04T19:33:58.467Z,27.30
2022-08-04T19:36:34.311Z,27.15
2022-08-04T19:39:09.247Z,27.16
2022-08-04T19:42:04.754Z,27.14
2022-08-04T19:44:32.348Z,26.98
2022-08-04T19:47:02.441Z,26.95
2022-08-04T19:50:04.507Z,26.83
2022-08-04T19:52:39.244Z,26.76
2022-08-04T19:55:11.138Z,26.78
2022-08-04T19:57:46.385Z,26.70
2022-08-04T20:00:33.263Z,26.61
2022-08-04T20:03:03.585Z,26.53
2022-08-04T20:08:28.907Z,26.42
2022-08-04T20:11:00.154Z,26.35
2022-08-04T20:13:37.579Z,26.26
2022-08-04T20:19:02.773Z,26.15
2022-08-04T20:21:53.884Z,26.08
2022-08-04T20:24:39.429Z,26.03
2022-08-04T20:27:15.334Z,26.00
2022-08-04T20:29:50.107Z,25.94
2022-08-04T20:32:22.459Z,25.92
2022-08-04T20:34:56.415Z,25.85
2022-08-04T20:37:55.197Z,25.80
2022-08-04T20:40:20.541Z,25.74
2022-08-04T20:42:51.828Z,25.70
2022-08-04T20:45:23.026Z,25.64
2022-08-04T20:47:53.232Z,25.65
2022-08-04T20:50:29.500Z,25.63
2022-08-04T20:53:00.521Z,25.54
2022-08-04T20:55:30.073Z,25.52
2022-08-04T20:58:03.441Z,25.54
2022-08-04T21:00:34.530Z,25.42
2022-08-04T21:03:07.252Z,25.40
2022-08-04T21:05:36.496Z,25.42
2022-08-04T21:08:05.905Z,25.41
2022-08-04T21:10:37.262Z,25.44
2022-08-04T21:13:06.352Z,25.34
2022-08-04T21:15:58.381Z,25.23
2022-08-04T21:18:29.395Z,25.22
2022-08-04T21:21:00.441Z,25.25
2022-08-04T21:23:29.809Z,25.19
2022-08-04T21:26:04.036Z,25.18
2022-08-04T21:28:34.025Z,25.15
2022-08-04T21:31:10.960Z,25.09
2022-08-04T21:33:54.347Z,25.09
2022-08-04T21:36:23.303Z,25.02
2022-08-04T21:38:56.762Z,24.97
2022-08-04T21:41:27.175Z,24.96
2022-08-04T21:43:59.666Z,24.94
2022-08-04T21:46:35.747Z,24.88
2022-08-04T21:49:25.958Z,24.83
2022-08-04T21:52:00.263Z,24.85
2022-08-04T21:54:37.997Z,24.77
2022-08-04T21:57:20.733Z,24.74
2022-08-04T21:59:54.259Z,24.76
2022-08-04T22:02:26.672Z,24.73
2022-08-04T22:05:02.916Z,24.63
2022-08-04T22:07:50.204Z,24.57
2022-08-04T22:10:46.355Z,24.52
2022-08-04T22:16:25.588Z,24.50
2022-08-04T22:19:00.379Z,24.50
2022-08-04T22:22:06.936Z,24.42
2022-08-04T22:24:42.070Z,24.35
2022-08-04T22:27:33.274Z,24.28
2022-08-04T22:30:08.163Z,24.21
2022-08-04T22:32:46.447Z,24.22
2022-08-04T22:35:33.313Z,24.27
2022-08-04T22:38:24.459Z,24.20
2022-08-04T22:41:02.530Z,24.12
2022-08-04T22:43:36.091Z,24.12
2022-08-04T22:46:24.068Z,24.16
2022-08-04T22:48:54.547Z,24.16
2022-08-04T22:51:27.170Z,24.07
2022-08-04T22:53:56.371Z,23.90
2022-08-04T22:56:38.159Z,23.91
2022-08-04T22:59:11.315Z,23.95
2022-08-04T23:02:00.172Z,23.91
2022-08-04T23:04:34.169Z,23.87
2022-08-04T23:07:09.063Z,23.89
2022-08-04T23:09:38.982Z,23.87
2022-08-04T23:12:26.158Z,23.78
2022-08-04T23:14:57.871Z,23.74
2022-08-04T23:17:28.711Z,23.72
2022-08-04T23:23:38.146Z,23.68
